createdAt,value
2022-08-29T00:00:47.357Z,67.27
2022-08-29T00:04:16.505Z,67.32
2022-08-29T00:07:47.204Z,67.41
2022-08-29T00:11:17.111Z,67.41
2022-08-29T00:14:47.342Z,67.37
2022-08-29T00:18:17.667Z,67.31
2022-08-29T00:21:46.262Z,67.40
2022-08-29T00:25:15.074Z,67.47
2022-08-29T00:28:50.675Z,67.36
2022-08-29T00:32:23.087Z,67.44
2022-08-29T00:35:50.661Z,67.56
2022-08-29T00:39:23.718Z,67.57
2022-08-29T00:42:55.293Z,67.57
2022-08-29T00:46:46.833Z,67.57
2022-08-29T00:50:27.726Z,67.64
2022-08-29T00:54:03.629Z,67.74
2022-08-29T00:57:35.235Z,67.77
2022-08-29T01:01:05.398Z,67.85
2022-08-29T01:04:32.164Z,67.85
2022-08-29T01:08:04.429Z,67.90
2022-08-29T01:11:52.027Z,67.89
2022-08-29T01:15:19.796Z,67.92
2022-08-29T01:18:50.383Z,67.90
2022-08-29T01:22:47.721Z,68.06
2022-08-29T01:26:30.748Z,67.89
2022-08-29T01:30:09.769Z,68.08
2022-08-29T01:33:49.547Z,67.97
2022-08-29T01:37:30.404Z,67.88
2022-08-29T01:40:58.950Z,67.99
2022-08-29T01:44:31.480Z,67.97
2022-08-29T01:48:01.867Z,68.10
2022-08-29T01:51:30.710Z,68.20
2022-08-29T01:54:59.398Z,68.32
2022-08-29T01:58:28.633Z,68.28
2022-08-29T02:02:01.396Z,68.42
2022-08-29T02:05:30.409Z,68.45
2022-08-29T02:08:59.708Z,68.51
2022-08-29T02:12:30.139Z,68.58
2022-08-29T02:15:57.991Z,68.53
2022-08-29T02:19:28.772Z,68.54
2022-08-29T02:22:58.278Z,68.49
2022-08-29T02:26:26.771Z,68.54
2022-08-29T02:29:54.332Z,68.35
2022-08-29T02:33:22.737Z,68.31
2022-08-29T02:36:50.806Z,68.11
2022-08-29T02:40:18.322Z,67.94
2022-08-29T02:43:59.363Z,67.86
2022-08-29T02:47:44.065Z,68.00
2022-08-29T02:51:27.973Z,67.97
2022-08-29T02:54:58.345Z,67.91
2022-08-29T02:58:42.657Z,67.94
2022-08-29T03:02:17.950Z,67.91
2022-08-29T03:05:47.719Z,67.88
2022-08-29T03:09:46.108Z,68.09
2022-08-29T03:13:13.948Z,68.26
2022-08-29T03:16:43.498Z,68.31
2022-08-29T03:20:16.291Z,68.47
2022-08-29T03:23:44.831Z,68.38
2022-08-29T03:27:14.154Z,68.51
2022-08-29T03:31:13.672Z,68.49
2022-08-29T03:34:47.849Z,68.55
2022-08-29T03:38:15.387Z,68.62
2022-08-29T03:41:43.364Z,68.64
2022-08-29T03:45:15.701Z,68.73
2022-08-29T03:48:43.572Z,68.65
2022-08-29T03:52:12.848Z,68.59
2022-08-29T03:55:41.244Z,68.67
2022-08-29T03:59:09.112Z,68.72
2022-08-29T04:02:38.861Z,68.68
2022-08-29T04:06:09.080Z,68.69
2022-08-29T04:09:39.600Z,68.66
2022-08-29T04:13:07.867Z,68.71
2022-08-29T04:16:36.514Z,68.65
2022-08-29T04:20:05.004Z,68.65
2022-08-29T04:23:32.123Z,68.91
2022-08-29T04:26:59.707Z,68.89
2022-08-29T04:30:29.860Z,68.98
2022-08-29T04:33:57.471Z,69.00
2022-08-29T04:37:25.256Z,69.12
2022-08-29T04:40:52.780Z,69.22
2022-08-29T04:44:24.777Z,69.23
2022-08-29T04:47:52.043Z,69.26
2022-08-29T04:51:20.518Z,69.41
2022-08-29T04:54:57.738Z,69.52
2022-08-29T04:58:25.586Z,69.59
2022-08-29T05:01:54.689Z,69.59
2022-08-29T05:05:24.395Z,69.54
2022-08-29T05:08:59.865Z,69.53
2022-08-29T05:12:29.651Z,69.80
2022-08-29T05:16:02.929Z,69.72
2022-08-29T05:19:34.547Z,69.70
2022-08-29T05:23:04.189Z,69.75
2022-08-29T05:26:37.388Z,69.82
2022-08-29T05:30:04.893Z,69.69
2022-08-29T05:33:33.197Z,69.69
2022-08-29T05:37:06.191Z,69.90
2022-08-29T05:40:37.416Z,69.81
2022-08-29T05:44:06.652Z,69.83
2022-08-29T05:47:36.901Z,69.87
2022-08-29T05:51:05.387Z,69.88
2022-08-29T05:54:34.516Z,69.90
2022-08-29T05:58:02.852Z,69.92
2022-08-29T06:01:33.185Z,69.86
2022-08-29T06:05:05.775Z,69.97
2022-08-29T06:08:34.908Z,69.86
2022-08-29T06:12:01.976Z,69.89
2022-08-29T06:15:30.210Z,69.99
2022-08-29T06:18:58.711Z,70.15
2022-08-29T06:22:27.081Z,70.12
2022-08-29T06:26:00.691Z,70.21
2022-08-29T06:29:28.486Z,70.01
2022-08-29T06:32:55.507Z,70.06
2022-08-29T06:36:23.185Z,70.01
2022-08-29T06:39:51.192Z,69.90
2022-08-29T06:43:19.068Z,69.87
2022-08-29T06:46:48.795Z,69.93
2022-08-29T06:50:17.611Z,69.86
2022-08-29T06:53:46.062Z,69.90
2022-08-29T06:57:14.960Z,69.90
2022-08-29T07:00:49.510Z,69.84
2022-08-29T07:04:20.734Z,69.99
2022-08-29T07:07:49.105Z,69.86
2022-08-29T07:11:18.952Z,69.88
2022-08-29T07:14:45.773Z,69.81
2022-08-29T07:18:13.900Z,69.67
2022-08-29T07:21:41.321Z,69.47
2022-08-29T07:25:11.718Z,69.50
2022-08-29T07:28:40.631Z,69.49
2022-08-29T07:32:12.209Z,69.47
2022-08-29T07:35:39.473Z,69.53
2022-08-29T07:39:11.017Z,69.37
2022-08-29T07:42:38.143Z,69.27
2022-08-29T07:46:09.527Z,69.32
2022-08-29T07:49:41.579Z,69.21
2022-08-29T07:53:09.230Z,69.16
2022-08-29T07:56:41.060Z,69.16
2022-08-29T08:00:12.413Z,69.03
2022-08-29T08:03:39.476Z,68.92
2022-08-29T08:07:13.615Z,68.88
2022-08-29T08:10:42.780Z,68.99
2022-08-29T08:14:11.794Z,68.85
2022-08-29T08:17:43.795Z,68.90
2022-08-29T08:21:12.367Z,68.69
2022-08-29T08:24:40.032Z,68.75
2022-08-29T08:28:07.478Z,68.73
2022-08-29T08:31:35.074Z,68.57
2022-08-29T08:35:03.161Z,68.43
2022-08-29T08:38:31.775Z,68.27
2022-08-29T08:42:04.980Z,68.20
2022-08-29T08:45:38.214Z,68.22
2022-08-29T08:49:13.848Z,68.08
2022-08-29T08:52:50.500Z,68.11
2022-08-29T08:56:24.138Z,68.20
2022-08-29T09:00:06.794Z,68.07
2022-08-29T09:04:07.821Z,67.84
2022-08-29T09:07:50.402Z,67.59
2022-08-29T09:11:27.457Z,67.55
2022-08-29T09:15:10.475Z,67.45
2022-08-29T09:18:43.774Z,67.20
2022-08-29T09:22:27.762Z,67.18
2022-08-29T09:26:02.001Z,67.37
2022-08-29T09:29:41.411Z,67.20
2022-08-29T09:33:12.605Z,67.06
2022-08-29T09:36:51.785Z,66.82
2022-08-29T09:40:19.595Z,66.67
2022-08-29T09:43:52.747Z,66.58
2022-08-29T09:47:25.151Z,66.47
2022-08-29T09:51:16.912Z,66.16
2022-08-29T09:54:45.877Z,66.00
2022-08-29T09:58:40.046Z,65.96
2022-08-29T10:02:22.495Z,66.01
2022-08-29T10:05:51.461Z,66.06
2022-08-29T10:09:29.126Z,65.90
2022-08-29T10:13:02.863Z,65.87
2022-08-29T10:16:41.194Z,65.79
2022-08-29T10:20:11.920Z,65.69
2022-08-29T10:23:52.379Z,65.24
2022-08-29T10:27:32.667Z,65.14
2022-08-29T10:31:07.026Z,64.67
2022-08-29T10:34:49.342Z,64.40
2022-08-29T10:38:28.687Z,64.10
2022-08-29T10:42:01.234Z,63.85
2022-08-29T10:45:37.025Z,63.89
2022-08-29T10:49:12.836Z,63.60
2022-08-29T10:52:53.497Z,62.98
2022-08-29T10:56:38.742Z,62.56
2022-08-29T11:00:09.757Z,62.41
2022-08-29T11:03:44.988Z,62.24
2022-08-29T11:07:23.286Z,61.77
2022-08-29T11:11:01.716Z,61.40
2022-08-29T11:14:54.262Z,61.47
2022-08-29T11:18:26.659Z,61.39
2022-08-29T11:22:03.174Z,61.04
2022-08-29T11:25:33.038Z,60.39
2022-08-29T11:29:20.043Z,60.33
2022-08-29T11:33:06.362Z,60.25
2022-08-29T11:36:54.495Z,59.93
2022-08-29T11:41:33.777Z,59.29
2022-08-29T11:45:39.859Z,59.42
2022-08-29T11:49:46.590Z,59.38
2022-08-29T11:53:59.703Z,59.19
2022-08-29T11:58:21.733Z,59.59
2022-08-29T12:02:11.019Z,59.22
2022-08-29T12:06:02.378Z,58.24
2022-08-29T12:09:43.278Z,58.01
2022-08-29T12:13:58.489Z,57.74
2022-08-29T12:18:01.993Z,58.17
2022-08-29T12:21:57.173Z,58.52
2022-08-29T12:25:46.159Z,58.34
2022-08-29T12:29:24.014Z,57.82
2022-08-29T12:33:07.077Z,57.73
2022-08-29T12:36:52.354Z,57.11
2022-08-29T12:41:11.634Z,56.76
2022-08-29T12:44:50.708Z,56.44
2022-08-29T12:48:24.655Z,56.16
2022-08-29T12:52:02.552Z,56.05
2022-08-29T12:55:35.963Z,55.63
2022-08-29T12:59:07.454Z,55.20
2022-08-29T13:02:37.693Z,54.90
2022-08-29T13:06:12.118Z,54.69
2022-08-29T13:09:46.650Z,54.38
2022-08-29T13:13:19.744Z,53.99
2022-08-29T13:16:47.534Z,53.53
2022-08-29T13:20:47.546Z,52.81
2022-08-29T13:24:19.715Z,52.96
2022-08-29T13:28:01.555Z,52.99
2022-08-29T13:31:36.456Z,52.61
2022-08-29T13:35:08.339Z,52.14
2022-08-29T13:38:36.396Z,51.73
2022-08-29T13:42:22.820Z,51.45
2022-08-29T13:46:02.321Z,50.82
2022-08-29T13:49:31.723Z,50.87
2022-08-29T13:52:59.435Z,50.51
2022-08-29T13:56:33.376Z,50.40
2022-08-29T14:00:01.504Z,49.65
2022-08-29T14:03:33.353Z,49.63
2022-08-29T14:07:00.385Z,49.06
2022-08-29T14:10:29.733Z,49.28
2022-08-29T14:14:06.446Z,49.26
2022-08-29T14:17:37.693Z,49.12
2022-08-29T14:21:08.757Z,48.37
2022-08-29T14:24:41.637Z,48.27
2022-08-29T14:28:08.864Z,47.90
2022-08-29T14:31:37.906Z,48.28
2022-08-29T14:35:06.567Z,48.29
2022-08-29T14:38:36.340Z,48.24
2022-08-29T14:42:04.115Z,48.37
2022-08-29T14:45:32.671Z,48.43
2022-08-29T14:49:01.673Z,48.40
2022-08-29T14:52:29.328Z,48.58
2022-08-29T14:56:05.583Z,48.65
2022-08-29T14:59:33.322Z,48.62
2022-08-29T15:03:01.951Z,48.75
2022-08-29T15:06:30.380Z,48.83
2022-08-29T15:09:58.789Z,49.01
2022-08-29T15:13:32.563Z,49.14
2022-08-29T15:17:23.888Z,49.13
2022-08-29T15:20:54.494Z,49.26
2022-08-29T15:24:22.197Z,49.38
2022-08-29T15:28:04.439Z,49.65
2022-08-29T15:31:34.438Z,49.68
2022-08-29T15:35:02.228Z,49.80
2022-08-29T15:38:31.713Z,49.91
2022-08-29T15:42:03.545Z,49.99
2022-08-29T15:45:35.898Z,50.23
2022-08-29T15:49:06.975Z,50.40
2022-08-29T15:52:34.416Z,50.60
2022-08-29T15:56:01.641Z,50.67
2022-08-29T15:59:56.735Z,50.76
2022-08-29T16:03:23.561Z,51.11
2022-08-29T16:06:50.963Z,51.14
2022-08-29T16:10:18.670Z,51.24
2022-08-29T16:13:46.505Z,51.57
2022-08-29T16:17:18.718Z,51.72
2022-08-29T16:20:46.342Z,52.04
2022-08-29T16:24:22.154Z,52.15
2022-08-29T16:28:06.014Z,52.33
2022-08-29T16:31:37.478Z,52.54
2022-08-29T16:35:11.598Z,52.71
2022-08-29T16:38:44.063Z,52.90
2022-08-29T16:42:12.847Z,53.11
2022-08-29T16:45:42.277Z,53.35
2022-08-29T16:49:12.763Z,53.52
2022-08-29T16:52:47.700Z,53.72
2022-08-29T16:56:41.745Z,53.90
2022-08-29T17:00:13.117Z,54.00
2022-08-29T17:03:45.115Z,54.23
2022-08-29T17:07:12.850Z,54.40
2022-08-29T17:10:41.321Z,54.52
2022-08-29T17:14:08.094Z,54.68
2022-08-29T17:17:39.337Z,54.84
2022-08-29T17:21:07.973Z,55.01
2022-08-29T17:24:38.201Z,55.18
2022-08-29T17:28:18.168Z,55.33
2022-08-29T17:31:46.850Z,55.45
2022-08-29T17:35:14.141Z,55.62
2022-08-29T17:38:45.174Z,55.84
2022-08-29T17:42:13.836Z,56.04
2022-08-29T17:45:46.422Z,56.23
2022-08-29T17:49:14.134Z,56.50
2022-08-29T17:52:46.214Z,56.61
2022-08-29T17:56:19.695Z,56.80
2022-08-29T17:59:45.075Z,56.98
2022-08-29T18:03:16.207Z,57.09
2022-08-29T18:06:43.930Z,57.30
2022-08-29T18:10:13.790Z,57.42
2022-08-29T18:13:45.525Z,57.61
2022-08-29T18:17:16.360Z,57.79
2022-08-29T18:20:48.060Z,57.95
2022-08-29T18:24:22.350Z,58.16
2022-08-29T18:27:55.977Z,58.40
2022-08-29T18:31:26.741Z,58.50
2022-08-29T18:39:07.102Z,58.93
2022-08-29T18:42:40.953Z,59.04
2022-08-29T18:46:10.891Z,59.17
2022-08-29T18:50:00.732Z,59.32
2022-08-29T18:53:36.429Z,59.44
2022-08-29T18:57:08.248Z,59.59
2022-08-29T19:00:39.111Z,59.64
2022-08-29T19:04:20.275Z,59.72
2022-08-29T19:07:58.207Z,59.84
2022-08-29T19:11:35.065Z,59.95
2022-08-29T19:15:07.206Z,60.09
2022-08-29T19:18:42.870Z,60.21
2022-08-29T19:22:16.676Z,60.43
2022-08-29T19:25:57.999Z,60.62
2022-08-29T19:29:39.961Z,60.71
2022-08-29T19:33:16.182Z,60.80
2022-08-29T19:36:47.007Z,60.88
2022-08-29T19:40:29.987Z,61.13
2022-08-29T19:44:05.398Z,61.31
2022-08-29T19:47:53.506Z,61.46
2022-08-29T19:51:44.986Z,61.61
2022-08-29T19:55:36.560Z,61.74
2022-08-29T19:59:27.516Z,61.73
2022-08-29T20:03:08.670Z,61.72
2022-08-29T20:06:37.768Z,61.82
2022-08-29T20:10:11.002Z,61.88
2022-08-29T20:13:57.214Z,62.01
2022-08-29T20:17:39.449Z,62.13
2022-08-29T20:21:12.007Z,62.27
2022-08-29T20:24:46.556Z,62.50
2022-08-29T20:28:25.384Z,62.53
2022-08-29T20:32:10.867Z,62.74
2022-08-29T20:36:03.508Z,62.87
2022-08-29T20:39:53.313Z,62.90
2022-08-29T20:43:30.283Z,62.93
2022-08-29T20:47:01.171Z,63.05
2022-08-29T20:54:02.433Z,63.18
2022-08-29T20:57:34.139Z,63.32
2022-08-29T21:01:04.131Z,63.26
2022-08-29T21:04:51.015Z,63.25
2022-08-29T21:08:21.145Z,63.33
2022-08-29T21:11:53.284Z,63.39
2022-08-29T21:15:22.480Z,63.54
2022-08-29T21:18:52.578Z,63.71
2022-08-29T21:22:25.065Z,63.75
2022-08-29T21:25:57.262Z,63.97
2022-08-29T21:29:27.876Z,63.93
2022-08-29T21:32:56.593Z,64.03
2022-08-29T21:36:27.604Z,64.26
2022-08-29T21:39:57.572Z,64.28
2022-08-29T21:43:24.980Z,64.44
2022-08-29T21:46:57.334Z,64.49
2022-08-29T21:50:27.402Z,64.59
2022-08-29T21:53:56.949Z,64.74
2022-08-29T21:57:46.390Z,64.82
2022-08-29T22:01:14.882Z,64.77
2022-08-29T22:04:43.310Z,64.93
2022-08-29T22:08:14.311Z,64.93
2022-08-29T22:11:42.686Z,65.02
2022-08-29T22:15:28.606Z,65.08
2022-08-29T22:18:57.068Z,65.21
2022-08-29T22:22:25.142Z,65.40
2022-08-29T22:25:54.518Z,65.48
2022-08-29T22:29:24.502Z,65.58
2022-08-29T22:32:54.913Z,65.83
2022-08-29T22:36:22.830Z,65.84
2022-08-29T22:39:52.405Z,65.96
2022-08-29T22:43:21.007Z,65.91
2022-08-29T22:46:56.297Z,65.97
2022-08-29T22:50:28.455Z,65.96
2022-08-29T22:54:15.576Z,66.01
2022-08-29T22:57:45.570Z,66.29
2022-08-29T23:01:17.395Z,66.23
2022-08-29T23:04:45.416Z,66.17
2022-08-29T23:08:18.242Z,66.23
2022-08-29T23:11:45.115Z,66.19
2022-08-29T23:15:16.238Z,66.16
2022-08-29T23:18:43.927Z,66.26
2022-08-29T23:22:13.242Z,66.28
2022-08-29T23:25:41.807Z,66.30
2022-08-29T23:29:12.674Z,66.33
2022-08-29T23:32:39.776Z,66.50
2022-08-29T23:36:07.703Z,66.52
2022-08-29T23:39:39.307Z,66.61
2022-08-29T23:43:08.025Z,66.70
2022-08-29T23:46:37.069Z,66.77
2022-08-29T23:50:04.933Z,66.79
2022-08-29T23:53:32.393Z,66.88
2022-08-29T23:56:59.416Z,66.94
